Time;durP1;ratioP1;P1;durP2;ratioP2;P2;SDS_P1;SDS_P2;PMS_P1;PMS_P2;Temp;Humidity;BMP_temperature;BMP_pressure;BME280_temperature;BME280_humidity;BME280_pressure;Samples;Min_cycle;Max_cycle;Signal;HPM_P1;HPM_P2
2024/01/20 00:01:18;;;;;;;26.77;14.43;;;10.70;99.90;;;;;;10241307;28;20258;-88
2024/01/20 00:06:21;;;;;;;33.80;17.10;;;11.10;99.90;;;;;;10220953;29;20223;-88
2024/01/20 00:11:24;;;;;;;31.50;18.10;;;11.40;99.90;;;;;;10253947;29;20681;-88
2024/01/20 00:16:26;;;;;;;25.30;15.53;;;11.60;99.90;;;;;;10253062;29;20235;-88
2024/01/20 00:21:29;;;;;;;31.83;16.47;;;11.40;99.90;;;;;;10237226;28;20320;-88
2024/01/20 00:26:32;;;;;;;30.23;16.37;;;11.50;99.90;;;;;;10258343;28;20330;-89
2024/01/20 00:31:36;;;;;;;33.10;21.07;;;11.40;99.90;;;;;;10251153;29;20306;-88
2024/01/20 00:36:38;;;;;;;25.13;15.77;;;11.10;99.90;;;;;;10254069;28;20208;-90
2024/01/20 00:41:41;;;;;;;27.30;16.43;;;10.90;99.90;;;;;;10252757;29;20250;-88
2024/01/20 00:46:44;;;;;;;14.40;8.00;;;11.00;99.90;;;;;;10235506;29;20285;-88
2024/01/20 00:51:47;;;;;;;25.00;15.77;;;11.40;99.90;;;;;;10251316;29;20256;-88
2024/01/20 00:56:49;;;;;;;24.30;14.70;;;11.40;99.90;;;;;;10236038;28;20230;-88
2024/01/20 01:01:52;;;;;;;22.83;11.57;;;11.40;99.90;;;;;;10218201;29;20258;-88
2024/01/20 01:06:54;;;;;;;25.00;14.43;;;11.40;99.90;;;;;;10247488;29;20236;-88
2024/01/20 01:11:57;;;;;;;21.83;9.27;;;11.70;99.90;;;;;;10252496;29;20304;-90
2024/01/20 01:16:59;;;;;;;22.27;13.50;;;11.60;99.90;;;;;;10224690;29;20277;-90
2024/01/20 01:22:02;;;;;;;20.63;10.60;;;11.60;99.90;;;;;;10212592;29;20266;-89
2024/01/20 01:27:06;;;;;;;16.73;10.47;;;11.50;99.90;;;;;;10242333;28;20233;-90
2024/01/20 01:32:08;;;;;;;13.87;8.63;;;11.50;99.90;;;;;;10275662;28;20206;-89
2024/01/20 01:37:11;;;;;;;18.20;9.60;;;11.60;99.90;;;;;;10242090;28;20240;-89
2024/01/20 01:42:13;;;;;;;19.70;11.83;;;11.40;99.90;;;;;;10194212;29;20350;-89
2024/01/20 01:47:16;;;;;;;21.83;11.57;;;11.70;99.90;;;;;;10194219;29;20673;-90
2024/01/20 01:52:22;;;;;;;10.30;7.00;;;11.90;99.90;;;;;;10217253;28;20316;-90
2024/01/20 01:57:25;;;;;;;15.33;8.33;;;11.70;99.90;;;;;;10289428;28;20247;-90
2024/01/20 02:02:29;;;;;;;13.83;8.67;;;11.70;99.90;;;;;;10261233;28;20283;-89
2024/01/20 02:07:32;;;;;;;20.73;10.90;;;11.70;99.90;;;;;;10220290;29;20232;-89
2024/01/20 02:12:35;;;;;;;14.10;9.07;;;11.30;99.90;;;;;;10248494;28;20302;-90
2024/01/20 02:17:52;;;;;;;20.63;10.70;;;11.50;99.90;;;;;;10249678;28;20271;-90
2024/01/20 02:22:55;;;;;;;16.73;9.17;;;11.20;99.90;;;;;;10232522;28;20271;-90
2024/01/20 02:27:58;;;;;;;13.33;8.37;;;11.00;99.90;;;;;;10285036;28;20278;-90
2024/01/20 02:33:00;;;;;;;11.37;7.33;;;11.20;99.90;;;;;;10271227;28;20239;-90
2024/01/20 02:38:03;;;;;;;17.40;9.27;;;11.50;99.90;;;;;;10226226;28;20244;-88
2024/01/20 02:43:06;;;;;;;15.63;10.40;;;11.50;99.90;;;;;;10208444;29;20319;-91
2024/01/20 02:48:10;;;;;;;10.10;7.60;;;11.30;99.90;;;;;;10252383;28;20229;-90
2024/01/20 02:53:12;;;;;;;13.57;8.47;;;11.10;99.90;;;;;;10270415;28;20276;-90
2024/01/20 02:58:15;;;;;;;13.03;6.40;;;11.50;99.90;;;;;;10232938;28;20266;-90
2024/01/20 03:03:17;;;;;;;14.13;7.30;;;11.30;99.90;;;;;;10210145;28;20257;-90
2024/01/20 03:08:20;;;;;;;9.00;6.47;;;11.30;99.90;;;;;;10211889;29;20630;-90
2024/01/20 03:13:22;;;;;;;12.77;6.87;;;11.20;99.90;;;;;;10239685;29;20625;-91
2024/01/20 03:18:25;;;;;;;11.10;6.07;;;11.10;99.90;;;;;;10251205;28;20553;-90
2024/01/20 03:23:27;;;;;;;10.53;6.03;;;11.00;99.90;;;;;;10286958;28;20256;-90
2024/01/20 03:28:30;;;;;;;12.17;6.23;;;11.30;99.90;;;;;;10271273;28;20237;-90
2024/01/20 03:33:32;;;;;;;9.67;6.20;;;11.40;99.90;;;;;;10286756;28;20245;-91
2024/01/20 03:38:35;;;;;;;11.40;7.73;;;11.50;99.90;;;;;;10276007;28;20288;-90
2024/01/20 03:43:38;;;;;;;8.57;6.07;;;11.20;99.90;;;;;;10268891;28;20816;-90
2024/01/20 03:48:41;;;;;;;11.70;7.10;;;11.20;99.90;;;;;;10232131;29;20274;-90
2024/01/20 03:53:44;;;;;;;8.83;5.07;;;11.10;99.90;;;;;;10246768;29;20266;-90
2024/01/20 03:58:47;;;;;;;9.53;6.33;;;11.00;99.90;;;;;;10212038;29;20281;-91
2024/01/20 04:03:51;;;;;;;7.93;4.77;;;11.10;99.90;;;;;;10246294;29;20740;-91
2024/01/20 04:08:53;;;;;;;11.60;7.60;;;11.30;99.90;;;;;;10246420;29;20262;-90
2024/01/20 04:13:56;;;;;;;5.73;4.30;;;11.50;99.90;;;;;;10260442;28;21015;-90
2024/01/20 04:18:58;;;;;;;10.97;6.47;;;11.30;99.90;;;;;;10247036;28;20294;-90
2024/01/20 04:24:02;;;;;;;4.70;3.50;;;11.50;99.90;;;;;;10245435;29;20263;-90
2024/01/20 04:29:04;;;;;;;8.50;6.27;;;11.60;99.90;;;;;;10276705;28;20664;-90
2024/01/20 04:34:07;;;;;;;6.23;4.07;;;11.40;99.90;;;;;;10287530;28;20235;-90
2024/01/20 04:39:09;;;;;;;6.83;3.73;;;11.40;99.90;;;;;;10275898;28;20968;-92
2024/01/20 04:44:12;;;;;;;7.20;4.23;;;11.20;99.90;;;;;;10274098;28;20315;-91
2024/01/20 04:49:14;;;;;;;7.63;4.63;;;11.30;99.90;;;;;;10252859;29;20235;-89
2024/01/20 04:54:17;;;;;;;10.70;3.77;;;11.40;99.90;;;;;;10251373;29;20270;-90
2024/01/20 04:59:19;;;;;;;10.53;5.17;;;11.20;99.90;;;;;;10263753;28;20292;-90
2024/01/20 05:04:22;;;;;;;9.93;4.33;;;11.40;99.90;;;;;;10275042;28;20321;-89
2024/01/20 05:09:24;;;;;;;7.93;5.37;;;11.50;99.90;;;;;;10291816;28;20656;-91
2024/01/20 05:14:27;;;;;;;9.90;6.97;;;11.50;99.90;;;;;;10288562;28;20260;-91
2024/01/20 05:19:30;;;;;;;5.37;3.07;;;11.50;99.90;;;;;;10250660;28;20234;-90
2024/01/20 05:24:32;;;;;;;11.23;7.67;;;11.40;99.90;;;;;;10237543;29;20254;-90
2024/01/20 05:29:35;;;;;;;6.03;3.93;;;10.90;99.90;;;;;;10233300;29;20271;-89
2024/01/20 05:34:38;;;;;;;8.23;5.83;;;11.30;99.90;;;;;;10275014;28;20233;-91
2024/01/20 05:39:40;;;;;;;9.37;4.10;;;11.60;99.90;;;;;;10273335;28;20245;-91
2024/01/20 05:44:43;;;;;;;10.87;5.10;;;11.30;99.90;;;;;;10217141;28;20633;-90
2024/01/20 05:49:47;;;;;;;6.60;4.53;;;11.50;99.90;;;;;;10251041;28;20239;-90
2024/01/20 05:54:50;;;;;;;5.83;4.07;;;11.40;99.90;;;;;;10232855;29;20230;-88
2024/01/20 05:59:52;;;;;;;8.50;5.07;;;11.80;99.90;;;;;;10250303;29;20266;-88
2024/01/20 06:04:55;;;;;;;9.53;5.40;;;11.20;99.90;;;;;;10233868;29;20247;-88
2024/01/20 06:09:58;;;;;;;4.87;2.47;;;11.40;99.90;;;;;;10285327;28;20290;-88
2024/01/20 06:15:00;;;;;;;6.07;3.20;;;11.30;99.90;;;;;;10289378;28;20966;-88
2024/01/20 06:20:03;;;;;;;6.57;4.20;;;11.40;99.90;;;;;;10271726;28;20230;-88
2024/01/20 06:25:06;;;;;;;3.97;3.10;;;11.20;99.90;;;;;;10278272;28;20259;-89
2024/01/20 06:30:09;;;;;;;4.40;3.23;;;11.50;99.90;;;;;;10287251;28;20231;-88
2024/01/20 06:35:12;;;;;;;7.87;4.23;;;11.20;99.90;;;;;;10254098;28;20680;-89
2024/01/20 06:40:14;;;;;;;5.53;3.80;;;11.40;99.90;;;;;;10248341;29;20279;-88
2024/01/20 06:45:17;;;;;;;4.57;2.57;;;11.00;99.90;;;;;;10247471;29;20259;-89
2024/01/20 06:50:19;;;;;;;3.77;2.83;;;10.70;99.90;;;;;;10247358;28;20633;-88
2024/01/20 06:55:22;;;;;;;6.77;3.37;;;11.30;99.90;;;;;;10229891;29;20247;-89
2024/01/20 07:00:24;;;;;;;6.63;3.20;;;11.40;99.90;;;;;;10247545;28;20248;-89
2024/01/20 07:05:27;;;;;;;7.63;4.37;;;11.40;99.90;;;;;;10246546;28;20275;-89
2024/01/20 07:10:30;;;;;;;2.80;2.20;;;11.40;99.90;;;;;;10210774;29;20261;-88
2024/01/20 07:15:32;;;;;;;8.17;3.37;;;11.30;99.90;;;;;;10212301;28;20254;-89
2024/01/20 07:20:35;;;;;;;7.97;4.30;;;11.00;99.90;;;;;;10230429;28;20238;-89
2024/01/20 07:25:39;;;;;;;10.17;4.33;;;11.60;99.90;;;;;;10249363;28;20638;-89
2024/01/20 07:30:42;;;;;;;8.13;4.80;;;11.40;99.90;;;;;;10269558;28;20238;-88
2024/01/20 07:35:44;;;;;;;6.03;2.87;;;11.50;99.90;;;;;;10249643;28;20644;-88
2024/01/20 07:40:47;;;;;;;9.57;2.90;;;11.60;99.90;;;;;;10246349;29;20243;-88
2024/01/20 07:45:53;;;;;;;7.40;4.53;;;11.40;99.90;;;;;;10230165;28;20683;-89
2024/01/20 07:50:56;;;;;;;5.03;3.23;;;11.20;99.90;;;;;;10247799;28;20363;-90
2024/01/20 07:55:59;;;;;;;5.30;3.23;;;11.60;99.90;;;;;;10206939;29;20689;-89
2024/01/20 08:01:01;;;;;;;4.23;2.83;;;11.70;99.90;;;;;;10264602;28;20228;-88
2024/01/20 08:06:04;;;;;;;7.03;4.80;;;11.80;99.90;;;;;;10227760;29;20244;-92
2024/01/20 08:11:07;;;;;;;6.73;3.10;;;11.30;99.90;;;;;;10247622;28;20311;-90
2024/01/20 08:16:09;;;;;;;6.50;3.87;;;11.30;99.90;;;;;;10225140;28;20294;-89
2024/01/20 08:21:12;;;;;;;7.57;4.50;;;11.50;99.90;;;;;;10256913;28;20613;-87
2024/01/20 08:26:14;;;;;;;5.13;3.13;;;11.40;99.90;;;;;;10237180;28;20255;-86
2024/01/20 08:31:17;;;;;;;8.83;3.67;;;11.40;99.90;;;;;;10253928;28;20280;-87
2024/01/20 08:36:20;;;;;;;4.97;3.17;;;11.60;99.90;;;;;;10252166;29;20227;-87
2024/01/20 08:41:22;;;;;;;3.13;1.90;;;11.50;99.90;;;;;;10245045;29;20708;-88
2024/01/20 08:46:25;;;;;;;3.97;1.73;;;11.70;99.90;;;;;;10262014;28;20311;-87
2024/01/20 08:51:27;;;;;;;7.17;3.83;;;11.80;99.90;;;;;;10239403;29;20666;-87
2024/01/20 08:56:30;;;;;;;1.90;1.77;;;11.90;99.90;;;;;;10250637;28;20623;-88
2024/01/20 09:01:34;;;;;;;6.30;3.53;;;11.90;99.90;;;;;;10250219;29;20234;-90
2024/01/20 09:06:36;;;;;;;6.13;3.60;;;12.00;99.90;;;;;;10249180;28;20307;-91
2024/01/20 09:11:39;;;;;;;3.93;2.60;;;11.60;99.90;;;;;;10233401;29;20668;-90
2024/01/20 09:16:41;;;;;;;6.83;4.10;;;11.60;99.90;;;;;;10270014;28;20200;-87
2024/01/20 09:21:45;;;;;;;4.23;2.73;;;12.10;99.90;;;;;;10244244;29;20233;-88
2024/01/20 09:26:47;;;;;;;7.20;4.07;;;12.30;99.90;;;;;;10251365;28;20234;-89
2024/01/20 09:31:50;;;;;;;6.13;3.73;;;12.10;99.90;;;;;;10251781;28;20228;-88
2024/01/20 09:36:52;;;;;;;2.60;2.07;;;12.20;99.90;;;;;;10250031;29;20203;-87
2024/01/20 09:41:55;;;;;;;7.13;4.03;;;12.20;99.90;;;;;;10233850;29;20248;-87
2024/01/20 09:46:58;;;;;;;3.70;1.83;;;12.20;99.90;;;;;;10252122;28;20246;-87
2024/01/20 09:52:12;;;;;;;8.70;5.87;;;12.30;99.90;;;;;;10245097;29;20226;-87
2024/01/20 09:57:15;;;;;;;6.00;4.37;;;11.80;99.90;;;;;;10226940;29;20226;-87
2024/01/20 10:02:19;;;;;;;8.67;4.73;;;11.70;99.90;;;;;;10259157;28;20196;-88
2024/01/20 10:07:29;;;;;;;15.00;8.50;;;11.60;99.90;;;;;;10230858;28;20204;-87
2024/01/20 10:12:32;;;;;;;12.23;4.83;;;11.50;99.90;;;;;;10223302;28;20206;-87
2024/01/20 10:17:37;;;;;;;5.70;3.37;;;11.60;99.90;;;;;;10253786;29;20195;-88
2024/01/20 10:22:40;;;;;;;4.90;3.03;;;11.90;99.90;;;;;;10232319;28;20222;-87
2024/01/20 10:27:43;;;;;;;5.73;3.47;;;12.00;99.90;;;;;;10255592;29;20212;-87
2024/01/20 10:32:45;;;;;;;5.00;3.03;;;11.90;99.90;;;;;;9552786;28;10000294;-87
2024/01/20 10:38:12;;;;;;;3.60;2.00;;;12.20;99.90;;;;;;10235945;29;20218;-87
2024/01/20 10:43:15;;;;;;;4.70;2.27;;;12.00;99.90;;;;;;10231013;28;20663;-87
2024/01/20 10:48:26;;;;;;;4.57;3.17;;;11.80;99.90;;;;;;10219810;28;20287;-88
2024/01/20 10:53:29;;;;;;;6.73;4.63;;;12.00;99.90;;;;;;10241964;28;20266;-87
2024/01/20 10:58:38;;;;;;;9.63;2.97;;;11.90;99.90;;;;;;10222524;28;20251;-88
2024/01/20 11:03:41;;;;;;;3.73;2.43;;;12.10;99.90;;;;;;10244221;29;20285;-88
2024/01/20 11:08:52;;;;;;;4.90;4.13;;;12.00;99.90;;;;;;10242417;29;20238;-89
2024/01/20 11:14:01;;;;;;;7.83;3.83;;;11.90;99.90;;;;;;10200015;29;20239;-90
2024/01/20 11:19:07;;;;;;;6.93;3.23;;;12.10;99.90;;;;;;10246182;29;20618;-90
2024/01/20 11:24:10;;;;;;;5.40;3.30;;;12.10;99.90;;;;;;10245142;28;20669;-89
2024/01/20 11:29:15;;;;;;;4.67;3.80;;;12.00;99.90;;;;;;10215606;29;20309;-88
2024/01/20 11:34:18;;;;;;;2.97;1.70;;;12.00;99.90;;;;;;10245607;29;20294;-86
2024/01/20 11:39:22;;;;;;;7.10;3.00;;;12.00;99.90;;;;;;10229088;29;20281;-90
2024/01/20 11:44:27;;;;;;;8.77;4.97;;;12.00;99.90;;;;;;10244698;28;20390;-87
2024/01/20 11:49:34;;;;;;;3.57;2.67;;;12.20;99.90;;;;;;10236654;29;20238;-88
2024/01/20 11:54:38;;;;;;;6.30;3.13;;;12.10;99.90;;;;;;10248173;29;20677;-88
2024/01/20 11:59:40;;;;;;;4.30;2.63;;;12.00;99.90;;;;;;10248422;28;20306;-87
2024/01/20 12:04:43;;;;;;;5.07;3.60;;;11.90;99.90;;;;;;10252701;28;20767;-90
2024/01/20 12:09:47;;;;;;;6.03;3.03;;;11.60;99.90;;;;;;10252541;29;20298;-89
2024/01/20 12:14:50;;;;;;;7.73;2.77;;;11.90;99.90;;;;;;10249399;28;20302;-89
2024/01/20 12:19:54;;;;;;;5.40;3.83;;;12.00;99.90;;;;;;10236805;29;20258;-89
2024/01/20 12:24:58;;;;;;;3.73;2.93;;;12.10;99.90;;;;;;10250738;28;20262;-89
2024/01/20 12:30:03;;;;;;;6.03;3.73;;;11.60;99.90;;;;;;10253186;28;20226;-89
2024/01/20 12:35:06;;;;;;;14.80;9.50;;;11.80;99.90;;;;;;10249902;29;20239;-89
2024/01/20 12:40:09;;;;;;;12.47;7.73;;;10.90;99.90;;;;;;10251497;29;20252;-88
2024/01/20 12:45:12;;;;;;;13.73;10.03;;;;;;;;;;10261347;28;20693;-88
2024/01/20 12:50:15;;;;;;;14.97;10.50;;;5.90;99.90;;;;;;10237003;28;20734;-89
2024/01/20 12:55:18;;;;;;;15.37;8.93;;;4.70;99.90;;;;;;10243507;28;20640;-90
2024/01/20 13:00:20;;;;;;;17.63;11.10;;;5.30;99.90;;;;;;10250300;29;20305;-89
2024/01/20 13:05:26;;;;;;;10.67;8.50;;;6.20;99.90;;;;;;10249184;29;20259;-88
2024/01/20 13:10:30;;;;;;;5.83;4.30;;;4.60;99.90;;;;;;10248909;28;20268;-89
2024/01/20 13:15:32;;;;;;;16.80;10.97;;;6.30;99.90;;;;;;10232578;29;20973;-90
2024/01/20 13:20:35;;;;;;;19.27;2.87;;;7.20;99.90;;;;;;10219675;28;20695;-89
2024/01/20 13:25:39;;;;;;;7.37;4.87;;;10.10;99.90;;;;;;10241335;28;20259;-90
2024/01/20 13:30:42;;;;;;;8.43;4.00;;;;;;;;;;10214433;29;20292;-89
2024/01/20 13:35:45;;;;;;;12.47;3.60;;;11.80;99.90;;;;;;10249776;29;20239;-89
2024/01/20 13:40:48;;;;;;;4.77;2.93;;;12.20;99.90;;;;;;10251703;28;20244;-89
2024/01/20 13:45:50;;;;;;;3.60;3.03;;;12.10;99.90;;;;;;10221729;28;20257;-89
2024/01/20 13:50:55;;;;;;;4.93;2.70;;;12.20;99.90;;;;;;10244428;29;20291;-89
2024/01/20 13:55:57;;;;;;;8.10;2.67;;;12.20;99.90;;;;;;10231833;29;20251;-88
2024/01/20 14:01:00;;;;;;;7.37;3.70;;;12.20;99.90;;;;;;10254946;28;20263;-87
2024/01/20 14:06:06;;;;;;;8.03;4.33;;;11.90;99.90;;;;;;10269508;28;20253;-87
2024/01/20 14:11:09;;;;;;;5.07;2.90;;;12.30;99.90;;;;;;10271000;28;20233;-89
2024/01/20 14:16:11;;;;;;;3.97;3.17;;;12.40;99.90;;;;;;10260765;28;20244;-89
2024/01/20 14:21:14;;;;;;;5.93;3.10;;;12.30;99.90;;;;;;10237329;28;20297;-88
2024/01/20 14:26:16;;;;;;;9.27;3.63;;;12.50;99.90;;;;;;10240049;29;20291;-89
2024/01/20 14:31:19;;;;;;;7.10;3.10;;;12.50;99.90;;;;;;10246981;29;20241;-89
2024/01/20 14:36:21;;;;;;;36.67;7.50;;;11.80;99.90;;;;;;10226437;29;20282;-83
2024/01/20 14:41:24;;;;;;;11.53;3.73;;;11.00;99.90;;;;;;10207913;29;20787;-85
2024/01/20 14:46:27;;;;;;;7.37;3.80;;;10.10;99.90;;;;;;10210672;29;20258;-86
2024/01/20 14:51:30;;;;;;;12.97;4.77;;;10.00;99.90;;;;;;10232588;29;20254;-85
2024/01/20 14:56:35;;;;;;;6.77;4.20;;;10.10;99.90;;;;;;10219182;29;20246;-86
2024/01/20 15:01:38;;;;;;;14.03;4.43;;;10.30;99.90;;;;;;10218896;29;20265;-86
2024/01/20 15:06:41;;;;;;;9.33;3.90;;;10.60;99.90;;;;;;10228936;29;20258;-85
2024/01/20 15:11:43;;;;;;;8.07;3.40;;;10.70;99.90;;;;;;10244412;29;20288;-86
2024/01/20 15:16:46;;;;;;;7.13;3.40;;;11.10;99.90;;;;;;10245432;28;20249;-87
2024/01/20 15:21:48;;;;;;;10.50;3.77;;;11.00;99.90;;;;;;10222262;28;20262;-87
2024/01/20 15:26:51;;;;;;;8.10;2.30;;;11.10;99.90;;;;;;10214209;28;20258;-87
2024/01/20 15:31:53;;;;;;;12.60;3.03;;;11.10;99.90;;;;;;10246582;28;20230;-86
2024/01/20 15:36:59;;;;;;;13.47;3.10;;;10.80;99.90;;;;;;10196780;29;20646;-86
2024/01/20 15:42:02;;;;;;;4.40;2.37;;;10.80;99.90;;;;;;10220513;29;20297;-86
2024/01/20 15:47:04;;;;;;;8.20;3.27;;;11.00;99.90;;;;;;10217254;29;20293;-86
2024/01/20 15:52:07;;;;;;;7.13;3.57;;;11.10;99.90;;;;;;10224557;28;20285;-86
2024/01/20 15:57:09;;;;;;;7.10;5.03;;;10.90;99.90;;;;;;10233767;29;20747;-86
2024/01/20 16:02:12;;;;;;;8.47;1.93;;;10.90;99.90;;;;;;10240321;29;20655;-86
2024/01/20 16:07:15;;;;;;;12.00;2.37;;;11.00;99.90;;;;;;10209000;28;20272;-85
2024/01/20 16:12:17;;;;;;;10.63;4.60;;;11.10;99.90;;;;;;10211145;29;20242;-86
2024/01/20 16:17:20;;;;;;;3.43;1.40;;;11.20;99.90;;;;;;10203216;29;20596;-86
2024/01/20 16:22:23;;;;;;;4.80;2.03;;;11.20;99.90;;;;;;10191615;28;20253;-87
2024/01/20 16:27:25;;;;;;;2.97;1.97;;;11.30;99.90;;;;;;10250188;28;20332;-88
2024/01/20 16:32:28;;;;;;;2.20;1.43;;;11.50;99.90;;;;;;10251379;28;20251;-87
2024/01/20 16:37:31;;;;;;;6.33;3.57;;;11.50;99.90;;;;;;10274877;28;20263;-87
2024/01/20 16:42:33;;;;;;;6.50;3.80;;;11.70;99.90;;;;;;10215783;29;20732;-87
2024/01/20 16:47:36;;;;;;;3.43;2.43;;;11.80;99.90;;;;;;10229956;28;20262;-87
2024/01/20 16:52:39;;;;;;;4.00;2.40;;;11.20;99.90;;;;;;10251187;28;20818;-88
2024/01/20 16:57:41;;;;;;;2.57;2.10;;;11.50;99.90;;;;;;10225058;29;20235;-87
2024/01/20 17:02:45;;;;;;;5.10;3.13;;;11.30;99.90;;;;;;10198272;28;20236;-89
2024/01/20 17:07:47;;;;;;;2.97;2.63;;;11.40;99.90;;;;;;10227973;28;20460;-88
2024/01/20 17:12:50;;;;;;;3.23;2.23;;;11.60;99.90;;;;;;10266083;28;20258;-87
2024/01/20 17:17:52;;;;;;;5.50;3.47;;;11.50;99.90;;;;;;10252626;28;20239;-88
2024/01/20 17:22:55;;;;;;;3.60;2.00;;;11.40;99.90;;;;;;10228040;28;20230;-88
2024/01/20 17:27:59;;;;;;;5.70;3.07;;;12.00;99.90;;;;;;10254351;28;20262;-89
2024/01/20 17:33:03;;;;;;;9.30;3.87;;;11.10;99.90;;;;;;10245202;28;20229;-88
2024/01/20 17:38:05;;;;;;;7.97;4.20;;;11.00;99.90;;;;;;10281761;28;20233;-88
2024/01/20 17:43:08;;;;;;;6.97;3.57;;;11.00;99.90;;;;;;10255177;28;20261;-87
2024/01/20 17:48:11;;;;;;;4.33;2.43;;;11.10;99.90;;;;;;10259352;28;20709;-88
2024/01/20 17:53:15;;;;;;;5.60;4.53;;;10.90;99.90;;;;;;10235210;28;20294;-88
2024/01/20 17:58:19;;;;;;;5.10;2.53;;;10.90;99.90;;;;;;10230395;29;20263;-88
2024/01/20 18:03:22;;;;;;;9.00;2.57;;;10.80;99.90;;;;;;10242733;28;20291;-89
2024/01/20 18:08:24;;;;;;;6.33;3.90;;;11.00;99.90;;;;;;10251618;28;20259;-88
2024/01/20 18:13:27;;;;;;;15.50;10.67;;;11.10;99.90;;;;;;10268845;28;20738;-87
2024/01/20 18:18:29;;;;;;;16.00;8.70;;;7.40;99.90;;;;;;10257268;28;20234;-88
2024/01/20 18:23:32;;;;;;;7.83;4.83;;;8.00;99.90;;;;;;10267928;28;20232;-88
2024/01/20 18:28:35;;;;;;;9.47;5.63;;;9.20;99.90;;;;;;10271595;28;20638;-88
2024/01/20 18:33:37;;;;;;;9.20;4.07;;;9.40;99.90;;;;;;10271669;28;20209;-88
2024/01/20 18:38:50;;;;;;;;;;;;;;;;;;;;;
2024/01/20 18:43:56;;;;;;;11.83;5.53;;;9.80;99.90;;;;;;10271953;28;20217;-90
2024/01/20 18:48:59;;;;;;;7.30;4.07;;;10.30;99.90;;;;;;10271725;28;20261;-90
2024/01/20 18:54:03;;;;;;;6.73;2.97;;;10.20;99.90;;;;;;10271162;28;20343;-91
2024/01/20 18:59:05;;;;;;;6.40;3.33;;;10.20;99.90;;;;;;10288250;28;20327;-90
2024/01/20 19:04:08;;;;;;;4.20;2.73;;;10.50;99.90;;;;;;10270947;28;20209;-90
2024/01/20 19:09:11;;;;;;;7.37;4.90;;;10.70;99.90;;;;;;10258167;28;20636;-89
2024/01/20 19:14:13;;;;;;;9.60;6.07;;;10.60;99.90;;;;;;10250609;29;20206;-90
2024/01/20 19:19:16;;;;;;;11.63;6.00;;;10.60;99.90;;;;;;10252203;29;20562;-89
2024/01/20 19:24:20;;;;;;;7.50;4.40;;;10.50;99.90;;;;;;10231670;29;20271;-90
2024/01/20 19:29:22;;;;;;;10.20;5.50;;;10.50;99.90;;;;;;10248068;29;20250;-90
2024/01/20 19:34:25;;;;;;;9.03;5.43;;;9.80;99.90;;;;;;10248184;29;20200;-89
2024/01/20 19:39:28;;;;;;;12.27;7.00;;;10.20;99.90;;;;;;10231104;29;20267;-90
2024/01/20 19:44:31;;;;;;;18.83;12.00;;;9.80;99.90;;;;;;10250628;28;20197;-89
2024/01/20 19:49:34;;;;;;;19.10;11.43;;;9.40;99.90;;;;;;10272929;28;20512;-88
2024/01/20 19:54:37;;;;;;;17.80;12.53;;;5.30;99.90;;;;;;10252873;28;20222;-92
2024/01/20 19:59:39;;;;;;;23.90;15.02;;;3.50;99.90;;;;;;10231185;29;20428;-90
2024/01/20 20:04:43;;;;;;;21.90;12.20;;;2.80;99.90;;;;;;10224392;28;21004;-85
2024/01/20 20:09:46;;;;;;;18.57;12.47;;;2.30;99.90;;;;;;10238500;29;20747;-88
2024/01/20 20:14:48;;;;;;;25.13;14.43;;;2.10;99.90;;;;;;10252077;29;20431;-88
2024/01/20 20:19:51;;;;;;;27.93;15.10;;;2.30;99.90;;;;;;10270270;29;20202;-87
2024/01/20 20:24:54;;;;;;;237.87;110.57;;;7.00;99.90;;;;;;10269842;28;20240;-87
